Time;durP1;ratioP1;P1;durP2;ratioP2;P2;SDS_P1;SDS_P2;PMS_P1;PMS_P2;Temp;Humidity;BMP_temperature;BMP_pressure;BME280_temperature;BME280_humidity;BME280_pressure;Samples;Min_cycle;Max_cycle;Signal;HPM_P1;HPM_P2
2024/02/12 00:00:19;;;;;;;;;;;10.80;81.00;;;;;;5016584;28;86859;-53
2024/02/12 00:02:45;;;;;;;;;;;10.80;81.00;;;;;;5020116;28;87496;-53
2024/02/12 00:05:11;;;;;;;;;;;10.80;81.00;;;;;;5018158;28;87056;-55
2024/02/12 00:07:37;;;;;;;;;;;10.70;81.00;;;;;;5018317;28;88006;-54
2024/02/12 00:10:05;;;;;;;;;;;10.70;80.90;;;;;;5019192;28;87355;-57
2024/02/12 00:12:34;;;;;;;;;;;10.70;81.00;;;;;;5018889;28;87783;-55
2024/02/12 00:15:00;;;;;;;;;;;10.70;80.90;;;;;;5017615;28;87419;-56
2024/02/12 00:17:28;;;;;;;;;;;10.70;80.90;;;;;;5015052;28;86932;-55
2024/02/12 00:19:54;;;;;;;;;;;10.70;80.90;;;;;;5017022;28;88531;-56
2024/02/12 00:22:20;;;;;;;;;;;10.70;80.90;;;;;;5018603;28;88615;-57
2024/02/12 00:24:47;;;;;;;;;;;10.70;80.90;;;;;;5016835;28;86856;-57
2024/02/12 00:27:12;;;;;;;;;;;10.70;80.90;;;;;;5018953;28;87706;-56
2024/02/12 00:29:38;;;;;;;;;;;10.70;80.90;;;;;;5016046;28;87619;-58
2024/02/12 00:32:05;;;;;;;;;;;10.70;80.90;;;;;;5022057;28;87180;-57
2024/02/12 00:34:33;;;;;;;;;;;10.70;80.90;;;;;;5016729;28;87639;-56
2024/02/12 00:36:59;;;;;;;;;;;10.60;80.80;;;;;;5019929;28;86422;-56
2024/02/12 00:39:25;;;;;;;;;;;10.60;80.80;;;;;;5016680;28;86894;-57
2024/02/12 00:41:51;;;;;;;;;;;10.60;80.80;;;;;;5018713;28;87719;-56
2024/02/12 00:44:17;;;;;;;;;;;10.60;80.80;;;;;;5015635;28;88090;-54
2024/02/12 00:46:45;;;;;;;;;;;10.60;80.80;;;;;;5019037;28;89006;-54
2024/02/12 00:49:11;;;;;;;;;;;10.60;80.80;;;;;;5014881;28;87339;-55
2024/02/12 00:51:37;;;;;;;;;;;10.60;80.80;;;;;;5015144;28;86959;-55
2024/02/12 00:54:03;;;;;;;;;;;10.60;80.80;;;;;;5018243;28;87992;-54
2024/02/12 00:56:28;;;;;;;;;;;10.60;80.80;;;;;;5016038;28;86867;-52
2024/02/12 00:58:54;;;;;;;;;;;10.60;80.70;;;;;;5015813;28;86882;-53
2024/02/12 01:01:20;;;;;;;;;;;10.50;80.70;;;;;;5015660;28;87800;-54
2024/02/12 01:03:46;;;;;;;;;;;10.50;80.70;;;;;;5015784;28;86939;-54
2024/02/12 01:06:11;;;;;;;;;;;10.50;80.70;;;;;;5014590;28;88148;-55
2024/02/12 01:08:38;;;;;;;;;;;10.50;80.70;;;;;;5021272;28;91456;-55
2024/02/12 01:11:06;;;;;;;;;;;10.50;80.60;;;;;;5015476;28;87028;-52
2024/02/12 01:13:33;;;;;;;;;;;10.50;80.60;;;;;;5020186;28;86999;-55
2024/02/12 01:15:59;;;;;;;;;;;10.50;80.60;;;;;;5021567;28;86994;-54
2024/02/12 01:18:25;;;;;;;;;;;10.50;80.70;;;;;;5011171;28;87592;-56
2024/02/12 01:20:52;;;;;;;;;;;10.50;80.70;;;;;;5015483;28;87473;-55
2024/02/12 01:23:18;;;;;;;;;;;10.50;80.70;;;;;;5018419;28;87259;-55
2024/02/12 01:25:43;;;;;;;;;;;10.50;80.80;;;;;;5016663;28;86735;-55
2024/02/12 01:28:09;;;;;;;;;;;10.40;80.70;;;;;;5018076;28;87404;-55
2024/02/12 01:30:35;;;;;;;;;;;10.40;80.70;;;;;;5016216;28;86978;-55
2024/02/12 01:33:01;;;;;;;;;;;10.40;80.70;;;;;;5016629;28;87950;-56
2024/02/12 01:35:27;;;;;;;;;;;10.40;80.60;;;;;;5011627;28;87434;-56
2024/02/12 01:37:53;;;;;;;;;;;10.40;80.60;;;;;;5012461;28;88043;-56
2024/02/12 01:40:19;;;;;;;;;;;10.40;80.60;;;;;;5009967;28;86889;-56
2024/02/12 01:42:44;;;;;;;;;;;10.40;80.60;;;;;;5018520;28;87260;-56
2024/02/12 01:45:13;;;;;;;;;;;10.40;80.60;;;;;;5011233;28;87029;-53
2024/02/12 01:47:41;;;;;;;;;;;10.40;80.60;;;;;;5017427;28;87589;-56
2024/02/12 01:50:12;;;;;;;;;;;10.40;80.60;;;;;;5016901;28;86251;-56
2024/02/12 01:52:40;;;;;;;;;;;10.40;80.60;;;;;;5011725;28;87682;-56
2024/02/12 01:55:07;;;;;;;;;;;10.40;80.60;;;;;;5016124;28;87365;-56
2024/02/12 01:57:36;;;;;;;;;;;10.30;80.70;;;;;;5014084;28;88030;-57
2024/02/12 02:00:05;;;;;;;;;;;10.30;80.50;;;;;;5015354;28;87049;-57
2024/02/12 02:02:30;;;;;;;;;;;10.30;80.70;;;;;;5016335;28;87067;-57
2024/02/12 02:04:58;;;;;;;;;;;10.30;80.70;;;;;;5012411;28;87799;-56
2024/02/12 02:07:24;;;;;;;;;;;10.30;80.70;;;;;;5014224;28;88769;-56
2024/02/12 02:09:50;;;;;;;;;;;10.30;80.70;;;;;;5014232;28;87078;-56
2024/02/12 02:12:16;;;;;;;;;;;10.30;80.60;;;;;;5018554;28;87957;-56
2024/02/12 02:14:42;;;;;;;;;;;10.20;80.60;;;;;;5016354;28;86849;-55
2024/02/12 02:17:09;;;;;;;;;;;10.30;80.70;;;;;;5014921;28;86804;-57
2024/02/12 02:19:34;;;;;;;;;;;10.20;80.50;;;;;;5016864;28;87365;-57
2024/02/12 02:22:02;;;;;;;;;;;10.20;80.60;;;;;;5017885;28;88131;-56
2024/02/12 02:24:28;;;;;;;;;;;10.20;80.60;;;;;;5014687;28;88776;-57
2024/02/12 02:26:54;;;;;;;;;;;10.20;80.60;;;;;;5017851;28;87421;-57
2024/02/12 02:29:21;;;;;;;;;;;10.20;80.60;;;;;;5014836;28;87010;-57
2024/02/12 02:31:46;;;;;;;;;;;10.20;80.60;;;;;;5017720;28;88048;-57
2024/02/12 02:34:12;;;;;;;;;;;10.10;81.20;;;;;;5014643;28;87599;-57
2024/02/12 02:36:37;;;;;;;;;;;10.10;80.70;;;;;;5018065;28;87049;-57
2024/02/12 02:39:03;;;;;;;;;;;10.10;80.60;;;;;;5015336;28;86539;-57
2024/02/12 02:41:30;;;;;;;;;;;10.10;80.60;;;;;;5020206;28;88638;-57
2024/02/12 02:43:56;;;;;;;;;;;10.10;80.60;;;;;;5017673;28;86891;-56
2024/02/12 02:46:27;;;;;;;;;;;10.10;80.60;;;;;;5013401;28;89702;-57
2024/02/12 02:48:53;;;;;;;;;;;10.10;80.70;;;;;;5013153;28;86938;-56
2024/02/12 02:51:29;;;;;;;;;;;10.10;80.70;;;;;;5014947;28;87946;-57
2024/02/12 02:53:55;;;;;;;;;;;10.00;80.60;;;;;;5018412;28;86943;-59
2024/02/12 02:56:21;;;;;;;;;;;10.00;80.60;;;;;;5016248;28;88186;-59
2024/02/12 02:58:50;;;;;;;;;;;10.00;80.70;;;;;;5018689;28;87017;-59
2024/02/12 03:01:16;;;;;;;;;;;10.00;80.70;;;;;;5020136;28;88661;-58
2024/02/12 03:03:42;;;;;;;;;;;10.00;80.60;;;;;;5021469;28;86106;-59
2024/02/12 03:06:12;;;;;;;;;;;10.00;80.60;;;;;;5017373;28;87451;-57
2024/02/12 03:08:39;;;;;;;;;;;10.00;80.70;;;;;;5021080;28;87139;-56
2024/02/12 03:11:05;;;;;;;;;;;10.00;80.50;;;;;;5014514;28;87982;-55
2024/02/12 03:13:31;;;;;;;;;;;9.90;80.50;;;;;;5019343;28;89984;-57
2024/02/12 03:15:57;;;;;;;;;;;9.90;80.60;;;;;;5013269;28;87215;-57
2024/02/12 03:18:23;;;;;;;;;;;9.90;80.50;;;;;;5020977;28;86907;-56
2024/02/12 03:20:51;;;;;;;;;;;10.00;80.60;;;;;;5016888;28;87597;-57
2024/02/12 03:23:17;;;;;;;;;;;9.90;80.60;;;;;;5019990;28;86994;-56
2024/02/12 03:25:42;;;;;;;;;;;9.90;80.50;;;;;;5016926;28;88578;-56
2024/02/12 03:28:08;;;;;;;;;;;9.90;80.50;;;;;;5017904;28;86257;-57
2024/02/12 03:30:33;;;;;;;;;;;9.90;80.60;;;;;;5020586;28;87092;-57
2024/02/12 03:33:02;;;;;;;;;;;9.90;81.10;;;;;;5014734;28;87447;-57
2024/02/12 03:35:28;;;;;;;;;;;9.90;80.60;;;;;;5017925;28;88063;-57
2024/02/12 03:37:53;;;;;;;;;;;9.80;80.60;;;;;;5021084;28;87073;-57
2024/02/12 03:40:22;;;;;;;;;;;9.80;80.60;;;;;;5016524;28;87372;-57
2024/02/12 03:42:49;;;;;;;;;;;9.80;80.70;;;;;;5016886;28;86957;-56
2024/02/12 03:45:15;;;;;;;;;;;9.80;80.70;;;;;;5020720;28;87842;-59
2024/02/12 03:47:41;;;;;;;;;;;9.80;80.70;;;;;;5019267;28;87248;-59
2024/02/12 04:01:21;;;;;;;;;;;9.70;80.70;;;;;;5017013;28;87973;-59
2024/02/12 04:03:49;;;;;;;;;;;9.70;80.80;;;;;;5011965;28;88131;-57
2024/02/12 04:06:15;;;;;;;;;;;9.70;80.80;;;;;;5020372;28;87842;-57
2024/02/12 04:08:42;;;;;;;;;;;9.70;80.70;;;;;;5021198;28;88507;-57
2024/02/12 04:11:08;;;;;;;;;;;9.70;80.70;;;;;;5020279;28;87781;-57
2024/02/12 04:13:34;;;;;;;;;;;9.70;80.70;;;;;;5017490;28;88039;-57
2024/02/12 04:16:02;;;;;;;;;;;9.70;80.70;;;;;;5019177;28;86949;-57
2024/02/12 04:18:30;;;;;;;;;;;9.70;80.70;;;;;;5017977;28;86672;-57
2024/02/12 04:20:57;;;;;;;;;;;9.70;80.70;;;;;;5018994;28;88442;-57
2024/02/12 04:23:23;;;;;;;;;;;9.70;80.70;;;;;;5016821;28;87024;-57
2024/02/12 04:25:50;;;;;;;;;;;9.70;80.60;;;;;;5015995;28;87542;-59
2024/02/12 04:28:20;;;;;;;;;;;9.60;80.70;;;;;;5019581;28;87290;-60
2024/02/12 04:30:47;;;;;;;;;;;9.60;80.70;;;;;;5023152;28;86983;-59
2024/02/12 04:33:13;;;;;;;;;;;9.60;80.90;;;;;;5016050;28;88642;-60
2024/02/12 04:35:38;;;;;;;;;;;9.60;80.80;;;;;;5019660;28;87049;-59
2024/02/12 04:38:06;;;;;;;;;;;9.50;80.80;;;;;;5016303;28;87743;-59
2024/02/12 04:40:32;;;;;;;;;;;9.60;80.90;;;;;;5013089;28;88515;-59
2024/02/12 04:42:59;;;;;;;;;;;9.60;80.90;;;;;;5015736;28;86176;-59
2024/02/12 04:45:25;;;;;;;;;;;9.50;80.90;;;;;;5015398;28;87022;-60
2024/02/12 04:47:50;;;;;;;;;;;9.50;81.00;;;;;;5016488;28;87580;-59
2024/02/12 04:50:16;;;;;;;;;;;9.50;81.00;;;;;;5019216;28;88047;-59
2024/02/12 04:52:42;;;;;;;;;;;9.50;81.60;;;;;;5021598;28;87594;-59
2024/02/12 04:55:10;;;;;;;;;;;9.50;81.10;;;;;;5016576;28;87020;-59
2024/02/12 04:57:36;;;;;;;;;;;9.50;81.00;;;;;;5018550;28;87620;-60
2024/02/12 05:00:03;;;;;;;;;;;9.40;81.00;;;;;;5013158;28;87027;-59
2024/02/12 05:02:31;;;;;;;;;;;9.40;81.00;;;;;;5018342;28;87075;-59
2024/02/12 05:04:57;;;;;;;;;;;9.50;81.00;;;;;;5017102;28;88336;-59
2024/02/12 05:07:27;;;;;;;;;;;9.40;80.80;;;;;;5017885;28;87836;-59
2024/02/12 05:09:53;;;;;;;;;;;9.40;80.90;;;;;;5017689;28;87028;-59
2024/02/12 05:12:18;;;;;;;;;;;9.40;80.80;;;;;;5019741;28;87890;-59
2024/02/12 05:14:44;;;;;;;;;;;9.40;80.90;;;;;;5013132;28;87940;-57
2024/02/12 05:17:11;;;;;;;;;;;9.40;81.00;;;;;;5014878;28;88749;-57
2024/02/12 05:22:35;;;;;;;;;;;9.40;81.10;;;;;;5020429;28;87208;-57
2024/02/12 05:25:04;;;;;;;;;;;9.40;81.20;;;;;;5013502;28;87784;-57
2024/02/12 05:27:31;;;;;;;;;;;9.40;81.10;;;;;;5014537;28;88434;-58
2024/02/12 05:29:57;;;;;;;;;;;9.40;81.20;;;;;;5015448;28;87065;-57
2024/02/12 05:32:23;;;;;;;;;;;9.30;81.00;;;;;;5016770;28;89706;-57
2024/02/12 05:34:48;;;;;;;;;;;9.30;81.20;;;;;;5014313;28;87638;-57
2024/02/12 05:37:14;;;;;;;;;;;9.30;81.20;;;;;;5014903;28;87830;-57
2024/02/12 05:39:40;;;;;;;;;;;9.30;81.40;;;;;;5015317;28;87882;-57
2024/02/12 05:42:06;;;;;;;;;;;9.30;81.30;;;;;;5006971;28;87061;-57
2024/02/12 05:44:35;;;;;;;;;;;9.20;81.40;;;;;;5015282;28;86841;-57
2024/02/12 05:47:07;;;;;;;;;;;9.20;81.30;;;;;;5017482;28;87488;-58
2024/02/12 05:49:35;;;;;;;;;;;9.20;81.30;;;;;;5016488;28;87027;-57
2024/02/12 05:52:03;;;;;;;;;;;9.20;81.30;;;;;;5015849;28;87904;-57
2024/02/12 05:54:29;;;;;;;;;;;9.20;81.30;;;;;;5014404;28;88389;-57
2024/02/12 05:56:55;;;;;;;;;;;9.20;81.40;;;;;;5019730;28;86292;-57
2024/02/12 05:59:20;;;;;;;;;;;9.20;81.40;;;;;;5014416;28;88883;-57
2024/02/12 06:01:46;;;;;;;;;;;9.20;81.40;;;;;;5016333;28;87033;-57
2024/02/12 06:04:12;;;;;;;;;;;9.20;81.40;;;;;;5017029;28;87785;-58
2024/02/12 06:06:38;;;;;;;;;;;9.20;81.50;;;;;;5014054;28;88490;-58
2024/02/12 06:09:04;;;;;;;;;;;9.20;81.50;;;;;;5013418;28;87167;-58
2024/02/12 06:11:29;;;;;;;;;;;9.10;81.40;;;;;;5011026;28;87018;-57
2024/02/12 06:13:55;;;;;;;;;;;9.10;81.50;;;;;;5014493;28;87555;-58
2024/02/12 06:16:20;;;;;;;;;;;9.20;81.50;;;;;;5011719;28;87193;-57
2024/02/12 06:18:46;;;;;;;;;;;9.10;81.40;;;;;;5011391;28;86866;-58
2024/02/12 06:21:12;;;;;;;;;;;9.10;81.50;;;;;;5010791;28;86496;-58
2024/02/12 06:23:38;;;;;;;;;;;9.10;81.60;;;;;;5015631;28;87173;-56
2024/02/12 06:26:03;;;;;;;;;;;9.10;81.50;;;;;;5016850;28;88155;-58
2024/02/12 06:28:29;;;;;;;;;;;9.10;81.40;;;;;;5018442;28;88065;-56
2024/02/12 06:30:56;;;;;;;;;;;9.10;81.40;;;;;;5017281;28;87718;-58
2024/02/12 06:33:21;;;;;;;;;;;9.10;81.50;;;;;;5020230;28;88467;-58
2024/02/12 06:35:47;;;;;;;;;;;9.10;81.40;;;;;;5014025;28;87092;-57
2024/02/12 06:38:14;;;;;;;;;;;9.10;81.50;;;;;;5012622;28;86978;-58
2024/02/12 06:40:40;;;;;;;;;;;9.10;81.50;;;;;;5022009;28;88737;-57
2024/02/12 06:43:05;;;;;;;;;;;9.10;81.40;;;;;;5017041;28;87094;-57
2024/02/12 06:45:32;;;;;;;;;;;9.00;81.50;;;;;;5016213;28;87201;-57
2024/02/12 06:47:58;;;;;;;;;;;9.00;81.50;;;;;;5019063;28;86997;-58
2024/02/12 06:50:23;;;;;;;;;;;9.00;81.50;;;;;;5016344;28;88099;-56
2024/02/12 06:52:49;;;;;;;;;;;9.00;81.40;;;;;;5015684;28;89565;-57
2024/02/12 06:55:15;;;;;;;;;;;9.00;81.40;;;;;;5017920;28;87381;-59
2024/02/12 06:57:46;;;;;;;;;;;9.00;81.50;;;;;;5017523;28;87667;-57
2024/02/12 07:00:15;;;;;;;;;;;9.10;81.50;;;;;;5019739;28;87426;-57
2024/02/12 07:02:42;;;;;;;;;;;9.00;81.40;;;;;;5021343;28;86981;-57
2024/02/12 07:05:07;;;;;;;;;;;9.00;81.50;;;;;;5015264;28;87516;-58
2024/02/12 07:07:33;;;;;;;;;;;9.00;81.60;;;;;;5016926;28;87101;-58
2024/02/12 07:09:59;;;;;;;;;;;9.00;81.60;;;;;;5017837;28;86846;-58
2024/02/12 07:12:26;;;;;;;;;;;9.00;81.50;;;;;;5021160;28;88518;-58
2024/02/12 07:14:52;;;;;;;;;;;9.00;81.70;;;;;;5017199;28;87089;-58
2024/02/12 07:17:18;;;;;;;;;;;9.00;81.60;;;;;;5017461;28;87781;-58
2024/02/12 07:19:47;;;;;;;;;;;9.00;81.60;;;;;;5020206;28;87629;-58
2024/02/12 07:22:13;;;;;;;;;;;9.00;81.50;;;;;;5020390;28;87048;-58
2024/02/12 07:24:40;;;;;;;;;;;9.00;81.50;;;;;;5020640;28;87539;-58
2024/02/12 07:27:07;;;;;;;;;;;9.00;81.60;;;;;;5017074;28;87055;-58
2024/02/12 07:29:32;;;;;;;;;;;9.00;81.60;;;;;;5018687;28;87897;-56
2024/02/12 07:31:58;;;;;;;;;;;9.00;81.60;;;;;;5015375;28;87432;-58
2024/02/12 07:34:23;;;;;;;;;;;9.00;81.50;;;;;;5021634;28;86393;-58
2024/02/12 07:36:49;;;;;;;;;;;9.00;81.50;;;;;;5016410;28;86834;-58
2024/02/12 07:39:17;;;;;;;;;;;9.00;81.60;;;;;;5013199;28;88203;-58
2024/02/12 07:41:43;;;;;;;;;;;8.90;81.60;;;;;;5012303;28;88002;-57
2024/02/12 07:44:10;;;;;;;;;;;9.00;81.70;;;;;;5019586;28;88847;-58
2024/02/12 07:46:38;;;;;;;;;;;8.90;81.50;;;;;;5019885;28;87067;-58
2024/02/12 07:49:05;;;;;;;;;;;8.90;81.60;;;;;;5017530;28;86967;-56
2024/02/12 07:51:31;;;;;;;;;;;8.90;81.50;;;;;;5023768;28;87411;-58
2024/02/12 07:53:57;;;;;;;;;;;8.90;81.70;;;;;;5017596;28;87084;-56
2024/02/12 07:56:23;;;;;;;;;;;8.90;81.50;;;;;;5018530;28;87920;-57
2024/02/12 07:58:49;;;;;;;;;;;8.90;81.70;;;;;;5017800;28;86597;-59
2024/02/12 08:01:15;;;;;;;;;;;8.90;81.80;;;;;;5019549;28;86996;-58
2024/02/12 08:03:41;;;;;;;;;;;8.90;81.80;;;;;;5013446;28;86999;-58
2024/02/12 08:06:08;;;;;;;;;;;8.90;81.70;;;;;;5021470;28;88398;-57
2024/02/12 08:08:34;;;;;;;;;;;8.80;81.70;;;;;;5017682;28;88941;-57
2024/02/12 08:11:00;;;;;;;;;;;8.90;81.80;;;;;;5019023;28;87431;-57
2024/02/12 08:13:25;;;;;;;;;;;8.90;81.70;;;;;;5016159;28;87383;-58
2024/02/12 08:15:51;;;;;;;;;;;8.90;81.80;;;;;;5020278;28;87832;-58
2024/02/12 08:18:16;;;;;;;;;;;8.90;81.70;;;;;;5017764;28;87293;-58
2024/02/12 08:20:42;;;;;;;;;;;8.80;81.70;;;;;;5016399;28;86890;-58
2024/02/12 08:23:08;;;;;;;;;;;8.90;81.80;;;;;;5017908;28;87669;-58
2024/02/12 08:25:33;;;;;;;;;;;8.80;81.70;;;;;;5016079;28;87367;-58
2024/02/12 08:27:59;;;;;;;;;;;8.90;81.60;;;;;;5019005;28;86966;-56
2024/02/12 08:30:24;;;;;;;;;;;8.90;81.60;;;;;;5017921;28;88663;-58
2024/02/12 08:32:50;;;;;;;;;;;8.90;81.70;;;;;;5015759;28;87031;-58
2024/02/12 08:35:16;;;;;;;;;;;8.80;81.70;;;;;;5015936;28;87880;-58
2024/02/12 08:37:41;;;;;;;;;;;8.80;81.70;;;;;;5016621;28;87522;-58
2024/02/12 08:40:07;;;;;;;;;;;8.90;81.70;;;;;;5018715;28;87102;-58
2024/02/12 08:42:33;;;;;;;;;;;8.90;81.70;;;;;;5017016;28;87429;-58
2024/02/12 08:44:59;;;;;;;;;;;8.90;81.60;;;;;;5019725;28;86837;-58
2024/02/12 08:47:26;;;;;;;;;;;8.90;81.60;;;;;;5018860;28;86285;-58
2024/02/12 08:49:53;;;;;;;;;;;8.80;81.70;;;;;;5019678;28;86845;-58
2024/02/12 08:52:19;;;;;;;;;;;8.90;82.30;;;;;;5016011;28;87004;-58
2024/02/12 08:54:45;;;;;;;;;;;8.80;81.70;;;;;;5013752;28;87845;-58
2024/02/12 08:57:14;;;;;;;;;;;8.90;81.80;;;;;;5017119;28;87497;-58
2024/02/12 08:59:43;;;;;;;;;;;8.90;81.70;;;;;;5013087;28;86970;-58
2024/02/12 09:02:08;;;;;;;;;;;8.80;81.70;;;;;;5016816;28;87007;-58
2024/02/12 09:04:34;;;;;;;;;;;8.90;81.70;;;;;;5017089;28;87390;-58
2024/02/12 09:07:02;;;;;;;;;;;8.90;81.60;;;;;;5018092;28;86989;-58
2024/02/12 09:09:28;;;;;;;;;;;8.90;81.70;;;;;;5016556;28;87039;-58
2024/02/12 09:11:54;;;;;;;;;;;8.90;81.70;;;;;;5018677;28;86727;-58
2024/02/12 09:14:20;;;;;;;;;;;8.90;81.70;;;;;;5018026;28;87098;-58
2024/02/12 09:16:48;;;;;;;;;;;8.80;81.70;;;;;;5016101;28;88594;-58
2024/02/12 09:19:14;;;;;;;;;;;8.90;81.80;;;;;;5013707;28;87945;-60
2024/02/12 09:21:41;;;;;;;;;;;8.90;81.70;;;;;;5018315;28;88880;-58
2024/02/12 09:24:07;;;;;;;;;;;8.80;81.70;;;;;;5015521;28;88997;-59
2024/02/12 09:26:33;;;;;;;;;;;8.90;81.80;;;;;;5018805;28;87051;-58
2024/02/12 09:29:01;;;;;;;;;;;8.90;81.90;;;;;;5016218;28;86846;-58
2024/02/12 09:31:27;;;;;;;;;;;8.80;81.80;;;;;;5021241;28;87718;-58
2024/02/12 09:33:53;;;;;;;;;;;8.80;81.80;;;;;;5015562;28;86897;-58
2024/02/12 09:36:19;;;;;;;;;;;8.80;81.90;;;;;;5019233;28;86850;-57
2024/02/12 09:38:45;;;;;;;;;;;8.80;82.00;;;;;;5008976;28;87292;-58
2024/02/12 09:41:14;;;;;;;;;;;8.90;81.90;;;;;;5009302;28;88210;-58
2024/02/12 09:43:42;;;;;;;;;;;8.80;81.80;;;;;;5012561;28;91074;-56
2024/02/12 09:46:08;;;;;;;;;;;8.80;81.90;;;;;;5018213;28;88137;-58
2024/02/12 09:48:33;;;;;;;;;;;8.80;81.90;;;;;;5011999;28;87155;-58
2024/02/12 09:50:59;;;;;;;;;;;8.90;81.80;;;;;;5014808;28;87560;-58
2024/02/12 09:53:26;;;;;;;;;;;8.80;81.80;;;;;;5018540;28;87389;-58
2024/02/12 09:55:54;;;;;;;;;;;8.80;82.00;;;;;;5012449;28;87673;-58
2024/02/12 09:58:19;;;;;;;;;;;8.80;81.90;;;;;;5018964;28;86997;-58
2024/02/12 10:00:45;;;;;;;;;;;8.80;81.90;;;;;;5018414;28;86664;-58
2024/02/12 10:03:14;;;;;;;;;;;8.80;81.80;;;;;;5014601;28;87531;-54
2024/02/12 10:05:41;;;;;;;;;;;8.80;81.70;;;;;;5018822;28;87026;-58
2024/02/12 10:08:23;;;;;;;;;;;8.80;81.50;;;;;;5013344;28;87909;-58
2024/02/12 10:10:49;;;;;;;;;;;8.80;81.50;;;;;;5013898;28;87291;-58
2024/02/12 10:13:15;;;;;;;;;;;8.80;81.50;;;;;;5011924;28;87002;-58
2024/02/12 10:15:41;;;;;;;;;;;8.90;81.10;;;;;;5021155;28;86880;-58
2024/02/12 10:18:15;;;;;;;;;;;8.90;81.00;;;;;;5011848;28;87100;-59
2024/02/12 10:20:44;;;;;;;;;;;8.90;81.20;;;;;;5015660;28;87980;-58
2024/02/12 10:23:11;;;;;;;;;;;8.90;81.20;;;;;;5016613;28;88463;-58
2024/02/12 10:25:41;;;;;;;;;;;8.80;81.10;;;;;;5014754;28;86238;-58
2024/02/12 10:28:07;;;;;;;;;;;8.90;81.20;;;;;;5016126;28;87051;-59
2024/02/12 10:30:33;;;;;;;;;;;8.80;81.30;;;;;;5018381;28;87292;-58
2024/02/12 10:33:04;;;;;;;;;;;8.80;81.40;;;;;;5012011;28;87936;-58
2024/02/12 10:35:31;;;;;;;;;;;8.80;81.50;;;;;;5017401;28;88945;-59
2024/02/12 10:37:57;;;;;;;;;;;8.80;81.60;;;;;;5018545;28;88590;-58
2024/02/12 10:40:30;;;;;;;;;;;8.80;81.80;;;;;;5014156;28;87000;-58
2024/02/12 10:42:57;;;;;;;;;;;8.80;81.70;;;;;;5017141;28;88478;-58
2024/02/12 10:45:23;;;;;;;;;;;8.80;81.70;;;;;;5014243;28;86980;-58
2024/02/12 10:47:48;;;;;;;;;;;8.80;81.90;;;;;;5012281;28;86864;-58
2024/02/12 10:50:17;;;;;;;;;;;8.80;81.80;;;;;;5018134;28;86211;-56
2024/02/12 10:52:43;;;;;;;;;;;8.80;81.90;;;;;;5014606;28;86949;-58
2024/02/12 10:55:10;;;;;;;;;;;8.80;81.80;;;;;;5017496;28;86974;-59
2024/02/12 10:57:39;;;;;;;;;;;8.90;81.90;;;;;;5012646;28;89527;-59
2024/02/12 11:00:10;;;;;;;;;;;8.80;81.80;;;;;;5019281;28;87559;-58
2024/02/12 11:02:39;;;;;;;;;;;8.80;81.80;;;;;;5013554;28;88625;-58
2024/02/12 11:05:06;;;;;;;;;;;8.80;81.80;;;;;;5016730;28;86991;-59
2024/02/12 11:07:32;;;;;;;;;;;8.90;81.90;;;;;;5014972;28;87007;-59
2024/02/12 11:10:01;;;;;;;;;;;8.90;81.70;;;;;;5013771;28;86764;-58
2024/02/12 11:12:27;;;;;;;;;;;8.90;81.80;;;;;;5017811;28;86929;-59
2024/02/12 11:14:54;;;;;;;;;;;8.90;81.90;;;;;;5020779;28;87698;-59
2024/02/12 11:17:20;;;;;;;;;;;8.90;82.00;;;;;;5016963;28;87456;-59
2024/02/12 11:19:48;;;;;;;;;;;8.90;82.10;;;;;;5021388;28;87284;-59
2024/02/12 11:22:23;;;;;;;;;;;8.80;82.20;;;;;;5019280;28;88499;-59
2024/02/12 11:24:49;;;;;;;;;;;8.80;82.30;;;;;;5013734;28;87067;-58
2024/02/12 11:27:15;;;;;;;;;;;8.80;82.20;;;;;;5016984;28;87005;-58
2024/02/12 11:29:42;;;;;;;;;;;8.80;82.50;;;;;;5017504;28;88419;-59
2024/02/12 11:32:10;;;;;;;;;;;8.80;82.40;;;;;;5017099;28;87027;-59
2024/02/12 11:34:36;;;;;;;;;;;8.80;82.50;;;;;;5015359;28;88035;-66
2024/02/12 11:37:03;;;;;;;;;;;8.80;82.50;;;;;;5016697;28;87532;-60
2024/02/12 11:39:30;;;;;;;;;;;8.70;83.50;;;;;;5019638;28;86196;-60
2024/02/12 11:41:57;;;;;;;;;;;8.70;84.00;;;;;;5018164;28;87307;-52
2024/02/12 11:44:24;;;;;;;;;;;8.70;83.80;;;;;;5018792;28;87035;-64
2024/02/12 11:46:56;;;;;;;;;;;8.60;84.00;;;;;;5019866;28;87916;-51
2024/02/12 11:49:21;;;;;;;;;;;8.70;85.20;;;;;;5014579;28;86874;-56
2024/02/12 11:51:47;;;;;;;;;;;8.70;85.20;;;;;;5017534;28;87016;-50
2024/02/12 11:54:13;;;;;;;;;;;8.70;86.00;;;;;;5016088;28;86818;-53
2024/02/12 11:56:40;;;;;;;;;;;8.70;85.50;;;;;;5017189;28;87204;-55
2024/02/12 11:59:06;;;;;;;;;;;8.80;85.30;;;;;;5018830;28;87004;-55
2024/02/12 12:01:32;;;;;;;;;;;8.90;85.10;;;;;;5017181;28;86857;-55
2024/02/12 12:03:58;;;;;;;;;;;8.90;84.80;;;;;;5022870;28;86666;-55
2024/02/12 12:06:29;;;;;;;;;;;8.90;84.60;;;;;;5010124;28;86760;-55
2024/02/12 12:08:56;;;;;;;;;;;8.90;84.20;;;;;;5019742;28;89500;-55
2024/02/12 12:11:22;;;;;;;;;;;8.90;84.40;;;;;;5017368;28;87707;-54
2024/02/12 12:13:49;;;;;;;;;;;9.00;84.20;;;;;;5013450;28;88876;-53
2024/02/12 12:16:15;;;;;;;;;;;9.00;83.90;;;;;;5016369;28;87327;-54
2024/02/12 12:18:41;;;;;;;;;;;9.00;83.40;;;;;;5019285;28;87397;-55
2024/02/12 12:21:08;;;;;;;;;;;8.90;83.70;;;;;;5015377;28;88052;-53
2024/02/12 12:23:34;;;;;;;;;;;8.80;83.70;;;;;;5018246;28;88530;-53
2024/02/12 12:26:00;;;;;;;;;;;8.80;83.90;;;;;;5022766;28;87018;-55
2024/02/12 12:28:25;;;;;;;;;;;8.80;83.80;;;;;;5017055;28;86444;-53
2024/02/12 12:30:54;;;;;;;;;;;8.90;83.90;;;;;;5016828;28;87008;-52
2024/02/12 12:33:21;;;;;;;;;;;8.90;83.80;;;;;;5016931;28;87212;-54
2024/02/12 12:35:46;;;;;;;;;;;8.90;83.70;;;;;;5011190;28;89657;-56
2024/02/12 12:38:14;;;;;;;;;;;8.90;83.70;;;;;;5018856;28;86908;-56
2024/02/12 12:40:41;;;;;;;;;;;9.00;83.40;;;;;;5017277;28;87860;-56
2024/02/12 12:43:08;;;;;;;;;;;9.00;83.50;;;;;;5015386;28;88912;-53
2024/02/12 12:45:34;;;;;;;;;;;9.00;83.30;;;;;;5014501;28;87853;-54
2024/02/12 12:48:02;;;;;;;;;;;9.00;83.40;;;;;;5020140;28;87878;-53
2024/02/12 12:50:28;;;;;;;;;;;9.10;83.20;;;;;;5019897;28;87043;-54
2024/02/12 12:52:55;;;;;;;;;;;9.00;83.90;;;;;;5017859;28;86726;-55
2024/02/12 12:55:20;;;;;;;;;;;9.10;83.20;;;;;;5017734;28;88686;-52
2024/02/12 12:57:47;;;;;;;;;;;9.10;83.30;;;;;;5017503;28;87021;-54
2024/02/12 13:00:21;;;;;;;;;;;9.10;83.20;;;;;;5020587;28;87948;-52
2024/02/12 13:02:47;;;;;;;;;;;9.10;83.40;;;;;;5015500;28;88539;-53
2024/02/12 13:05:13;;;;;;;;;;;9.10;83.10;;;;;;5015546;28;87157;-63
2024/02/12 13:07:41;;;;;;;;;;;9.10;83.20;;;;;;5018924;28;86960;-61
2024/02/12 13:10:08;;;;;;;;;;;9.00;84.00;;;;;;5021192;28;86861;-62
2024/02/12 13:12:33;;;;;;;;;;;9.00;84.30;;;;;;5015657;28;86908;-65
2024/02/12 13:15:00;;;;;;;;;;;8.90;85.00;;;;;;5012844;28;88420;-49
2024/02/12 13:17:27;;;;;;;;;;;9.00;85.60;;;;;;5015893;28;86409;-62
2024/02/12 13:19:53;;;;;;;;;;;9.00;85.50;;;;;;5015099;28;87597;-60
2024/02/12 13:22:18;;;;;;;;;;;9.00;86.10;;;;;;5017339;28;87442;-50
2024/02/12 13:24:44;;;;;;;;;;;9.00;85.70;;;;;;5012820;28;87890;-60
2024/02/12 13:27:14;;;;;;;;;;;9.00;85.90;;;;;;5013946;28;87821;-50
2024/02/12 13:29:41;;;;;;;;;;;9.00;86.00;;;;;;5017662;28;88497;-54
2024/02/12 13:32:07;;;;;;;;;;;9.00;86.10;;;;;;5017593;28;86971;-60
2024/02/12 13:34:32;;;;;;;;;;;9.00;86.00;;;;;;5016821;28;87686;-50
2024/02/12 13:36:58;;;;;;;;;;;9.00;85.90;;;;;;5011099;28;87929;-53
2024/02/12 13:39:27;;;;;;;;;;;9.10;85.50;;;;;;5021335;28;87072;-52
2024/02/12 13:41:53;;;;;;;;;;;9.10;85.20;;;;;;5013526;28;87718;-60
2024/02/12 13:44:18;;;;;;;;;;;9.10;84.90;;;;;;5016877;28;87042;-52
2024/02/12 13:46:44;;;;;;;;;;;9.20;85.00;;;;;;5013846;28;86936;-50
2024/02/12 13:49:10;;;;;;;;;;;9.20;84.90;;;;;;5009850;28;88819;-46
2024/02/12 13:51:37;;;;;;;;;;;9.40;84.70;;;;;;5016492;28;87437;-54
2024/02/12 13:54:04;;;;;;;;;;;9.40;84.90;;;;;;5015203;28;87400;-54
2024/02/12 13:56:30;;;;;;;;;;;9.40;85.50;;;;;;5013059;28;87837;-61
2024/02/12 13:58:55;;;;;;;;;;;9.40;85.30;;;;;;5012274;28;87126;-54
2024/02/12 14:01:21;;;;;;;;;;;9.50;84.90;;;;;;5017713;28;88004;-61
2024/02/12 14:03:47;;;;;;;;;;;9.50;85.00;;;;;;5013447;28;86978;-61
2024/02/12 14:06:12;;;;;;;;;;;9.40;85.50;;;;;;5016745;28;86721;-61
2024/02/12 14:08:40;;;;;;;;;;;9.60;84.90;;;;;;5010771;28;88365;-57
2024/02/12 14:11:06;;;;;;;;;;;9.50;84.20;;;;;;5009920;28;87472;-53
2024/02/12 14:13:31;;;;;;;;;;;9.50;84.30;;;;;;5011883;28;88067;-52
2024/02/12 14:15:59;;;;;;;;;;;9.50;83.90;;;;;;5021441;27;87438;-50
2024/02/12 14:18:26;;;;;;;;;;;9.60;84.00;;;;;;5016135;28;88158;-49
2024/02/12 14:20:53;;;;;;;;;;;9.60;83.60;;;;;;5016089;28;88493;-48
2024/02/12 14:23:19;;;;;;;;;;;9.50;83.90;;;;;;5015931;28;86980;-58
2024/02/12 14:25:48;;;;;;;;;;;9.50;84.00;;;;;;5023950;28;87671;-58
2024/02/12 14:28:15;;;;;;;;;;;9.50;84.20;;;;;;5024923;28;88366;-62
2024/02/12 14:30:41;;;;;;;;;;;9.50;84.70;;;;;;5015549;28;87256;-58
2024/02/12 14:33:08;;;;;;;;;;;9.60;84.80;;;;;;5014817;28;87032;-55
2024/02/12 14:35:38;;;;;;;;;;;9.50;85.00;;;;;;5014874;28;88548;-46